createdAt,value
2023-01-21T00:01:13.189Z,1.50
2023-01-21T00:04:14.603Z,1.54
2023-01-21T00:07:16.016Z,1.59
2023-01-21T00:10:18.756Z,1.66
2023-01-21T00:13:20.277Z,1.66
2023-01-21T00:16:21.698Z,1.70
2023-01-21T00:19:23.102Z,1.76
2023-01-21T00:22:24.547Z,1.73
2023-01-21T00:25:26.008Z,1.68
2023-01-21T00:28:29.083Z,1.73
2023-01-21T00:31:30.649Z,1.69
2023-01-21T00:34:32.071Z,1.71
2023-01-21T00:37:33.744Z,1.69
2023-01-21T00:40:35.123Z,1.78
2023-01-21T00:43:37.009Z,1.79
2023-01-21T00:46:38.540Z,1.78
2023-01-21T00:49:39.970Z,1.78
2023-01-21T00:52:41.368Z,1.79
2023-01-21T00:55:42.773Z,1.75
2023-01-21T00:58:44.388Z,1.82
2023-01-21T01:01:46.099Z,1.76
2023-01-21T01:04:47.564Z,1.75
2023-01-21T01:07:50.201Z,1.73
2023-01-21T01:10:54.390Z,1.70
2023-01-21T01:13:56.439Z,1.67
2023-01-21T01:16:57.832Z,1.58
2023-01-21T01:19:59.233Z,1.53
2023-01-21T01:23:00.632Z,1.51
2023-01-21T01:26:04.905Z,1.50
2023-01-21T01:29:07.050Z,1.46
2023-01-21T01:32:09.315Z,1.55
2023-01-21T01:35:10.708Z,1.56
2023-01-21T01:38:13.726Z,1.59
2023-01-21T01:41:18.268Z,1.54
2023-01-21T01:44:57.065Z,1.43
2023-01-21T01:48:03.072Z,1.36
2023-01-21T01:51:07.339Z,1.34
2023-01-21T01:54:10.767Z,1.42
2023-01-21T01:57:14.721Z,1.32
2023-01-21T02:00:17.128Z,1.33
2023-01-21T02:03:38.164Z,1.30
2023-01-21T02:06:40.722Z,1.30
2023-01-21T02:09:42.229Z,1.30
2023-01-21T02:12:44.319Z,1.30
2023-01-21T02:16:01.072Z,1.30
2023-01-21T02:19:39.686Z,1.23
2023-01-21T02:22:54.988Z,1.16
2023-01-21T02:26:21.102Z,1.08
2023-01-21T02:29:47.335Z,1.05
2023-01-21T02:33:32.630Z,1.06
2023-01-21T02:36:53.530Z,1.09
2023-01-21T02:40:00.756Z,0.93
2023-01-21T02:43:18.271Z,0.85
2023-01-21T02:46:33.997Z,0.88
2023-01-21T02:50:14.416Z,0.87
2023-01-21T02:53:31.026Z,0.78
2023-01-21T02:56:32.435Z,0.70
2023-01-21T02:59:35.071Z,0.67
2023-01-21T03:03:07.221Z,0.67
2023-01-21T03:06:08.574Z,0.57
2023-01-21T03:09:24.406Z,0.51
2023-01-21T03:12:46.157Z,0.57
2023-01-21T03:16:14.682Z,0.57
2023-01-21T03:19:18.387Z,0.49
2023-01-21T03:22:24.908Z,0.46
2023-01-21T03:25:29.440Z,0.46
2023-01-21T03:28:34.391Z,0.43
2023-01-21T03:31:39.246Z,0.47
2023-01-21T03:34:44.567Z,0.36
2023-01-21T03:37:58.351Z,0.29
2023-01-21T03:41:09.499Z,0.29
2023-01-21T03:44:10.979Z,0.23
2023-01-21T03:47:25.258Z,0.22
2023-01-21T03:50:34.172Z,0.29
2023-01-21T03:53:35.701Z,0.27
2023-01-21T03:56:37.135Z,0.37
2023-01-21T03:59:38.641Z,0.38
2023-01-21T04:02:40.068Z,0.41
2023-01-21T04:05:41.453Z,0.47
2023-01-21T04:08:43.200Z,0.49
2023-01-21T04:11:44.599Z,0.54
2023-01-21T04:14:46.084Z,0.50
2023-01-21T04:17:47.463Z,0.55
2023-01-21T04:20:49.701Z,0.65
2023-01-21T04:23:51.096Z,0.69
2023-01-21T04:26:52.977Z,0.56
2023-01-21T04:29:54.425Z,0.51
2023-01-21T04:32:55.823Z,0.47
2023-01-21T04:35:59.427Z,0.49
2023-01-21T04:39:00.801Z,0.28
2023-01-21T04:42:02.226Z,0.24
2023-01-21T04:45:03.971Z,-0.01
2023-01-21T04:48:05.524Z,-0.06
2023-01-21T04:51:07.793Z,-0.16
2023-01-21T04:54:11.133Z,-0.26
2023-01-21T04:57:12.549Z,-0.29
2023-01-21T05:00:14.560Z,-0.41
2023-01-21T05:03:16.354Z,-0.40
2023-01-21T05:06:17.844Z,-0.42
2023-01-21T05:09:19.241Z,-0.48
2023-01-21T05:12:20.629Z,-0.53
2023-01-21T05:15:22.020Z,-0.50
2023-01-21T05:18:23.428Z,-0.47
2023-01-21T05:21:25.017Z,-0.46
2023-01-21T05:24:26.438Z,-0.47
2023-01-21T05:27:28.205Z,-0.48
2023-01-21T05:30:29.678Z,-0.50
2023-01-21T05:33:32.796Z,-0.49
2023-01-21T05:36:34.191Z,-0.55
2023-01-21T05:39:35.655Z,-0.73
2023-01-21T05:42:37.041Z,-0.65
2023-01-21T05:45:38.433Z,-0.65
2023-01-21T05:48:39.847Z,-0.70
2023-01-21T05:51:41.312Z,-0.70
2023-01-21T05:54:59.923Z,-0.69
2023-01-21T05:58:02.650Z,-0.62
2023-01-21T06:01:04.316Z,-0.64
2023-01-21T06:04:05.747Z,-0.63
2023-01-21T06:07:07.141Z,-0.64
2023-01-21T06:10:09.062Z,-0.60
2023-01-21T06:13:15.017Z,-0.65
2023-01-21T06:16:16.415Z,-0.58
2023-01-21T06:19:18.164Z,-0.56
2023-01-21T06:22:19.820Z,-0.57
2023-01-21T06:25:21.210Z,-0.58
2023-01-21T06:28:22.623Z,-0.56
2023-01-21T06:31:24.361Z,-0.51
2023-01-21T06:34:25.882Z,-0.52
2023-01-21T06:37:27.315Z,-0.61
2023-01-21T06:40:28.801Z,-0.70
2023-01-21T06:43:30.290Z,-0.60
2023-01-21T06:46:31.990Z,-0.93
2023-01-21T06:49:33.441Z,-0.95
2023-01-21T06:52:34.849Z,-0.85
2023-01-21T06:55:36.239Z,-0.75
2023-01-21T06:58:37.626Z,-0.79
2023-01-21T07:01:39.237Z,-0.78
2023-01-21T07:04:40.677Z,-0.81
2023-01-21T07:07:42.191Z,-0.78
2023-01-21T07:10:44.316Z,-0.77
2023-01-21T07:13:46.979Z,-0.82
2023-01-21T07:16:48.353Z,-1.00
2023-01-21T07:19:49.854Z,-1.04
2023-01-21T07:22:51.419Z,-1.10
2023-01-21T07:25:52.822Z,-1.27
2023-01-21T07:28:54.314Z,-1.19
2023-01-21T07:31:55.791Z,-1.13
2023-01-21T07:34:57.289Z,-1.11
2023-01-21T07:37:58.692Z,-1.28
2023-01-21T07:41:00.112Z,-1.41
2023-01-21T07:44:01.553Z,-1.58
2023-01-21T07:47:03.054Z,-1.59
2023-01-21T07:50:08.416Z,-1.54
2023-01-21T07:53:11.789Z,-1.48
2023-01-21T07:56:13.628Z,-1.35
2023-01-21T07:59:15.079Z,-1.44
2023-01-21T08:02:16.610Z,-1.53
2023-01-21T08:05:18.338Z,-1.35
2023-01-21T08:08:20.073Z,-1.29
2023-01-21T08:11:21.452Z,-1.18
2023-01-21T08:14:22.971Z,-1.16
2023-01-21T08:17:24.359Z,-1.12
2023-01-21T08:20:25.872Z,-1.06
2023-01-21T08:23:27.393Z,-1.05
2023-01-21T08:26:28.771Z,-0.96
2023-01-21T08:29:30.347Z,-0.93
2023-01-21T08:32:31.739Z,-0.77
2023-01-21T08:35:33.329Z,-0.85
2023-01-21T08:38:35.029Z,-0.95
2023-01-21T08:41:36.422Z,-1.05
2023-01-21T08:44:37.839Z,-1.22
2023-01-21T08:47:39.276Z,-1.35
2023-01-21T08:50:40.767Z,-1.40
2023-01-21T08:53:42.180Z,-1.52
2023-01-21T08:56:43.654Z,-1.60
2023-01-21T08:59:45.022Z,-1.47
2023-01-21T09:02:46.519Z,-1.29
2023-01-21T09:05:48.346Z,-1.19
2023-01-21T09:08:49.980Z,-0.96
2023-01-21T09:11:52.663Z,-0.77
2023-01-21T09:14:54.087Z,-0.88
2023-01-21T09:17:55.535Z,-1.09
2023-01-21T09:21:04.972Z,-1.17
2023-01-21T09:24:06.835Z,-1.01
2023-01-21T09:27:08.725Z,-1.00
2023-01-21T09:30:10.721Z,-0.90
2023-01-21T09:33:13.802Z,-0.86
2023-01-21T09:36:18.957Z,-0.66
2023-01-21T09:39:20.360Z,-0.57
2023-01-21T09:42:32.407Z,-0.58
2023-01-21T09:45:34.053Z,-0.67
2023-01-21T09:48:41.825Z,-0.77
2023-01-21T09:51:52.491Z,-0.76
2023-01-21T09:54:55.657Z,-0.57
2023-01-21T09:58:40.312Z,-0.42
2023-01-21T10:01:42.858Z,-0.46
2023-01-21T10:05:35.572Z,-0.48
2023-01-21T10:08:58.941Z,-0.11
2023-01-21T10:12:00.297Z,-0.46
2023-01-21T10:15:21.078Z,-0.47
2023-01-21T10:18:31.128Z,-0.17
2023-01-21T10:21:45.264Z,-0.18
2023-01-21T10:24:52.044Z,-0.18
2023-01-21T10:27:55.121Z,-0.05
2023-01-21T10:31:04.438Z,-0.11
2023-01-21T10:34:18.099Z,0.02
2023-01-21T10:37:48.125Z,0.27
2023-01-21T10:41:00.264Z,0.35
2023-01-21T10:44:07.779Z,0.51
2023-01-21T10:47:37.745Z,0.58
2023-01-21T10:50:54.892Z,0.70
2023-01-21T10:54:09.767Z,0.20
2023-01-21T10:57:43.597Z,-0.01
2023-01-21T11:00:49.199Z,0.14
2023-01-21T11:03:53.366Z,-0.15
2023-01-21T11:07:01.769Z,-0.04
2023-01-21T11:10:05.956Z,-0.03
2023-01-21T11:13:13.282Z,0.00
2023-01-21T11:16:39.463Z,0.03
2023-01-21T11:19:42.201Z,0.27
2023-01-21T11:22:45.481Z,0.27
2023-01-21T11:25:48.964Z,-0.16
2023-01-21T11:29:07.083Z,-0.02
2023-01-21T11:32:27.276Z,0.10
2023-01-21T11:35:28.704Z,0.14
2023-01-21T11:38:34.212Z,0.29
2023-01-21T11:41:36.259Z,0.47
2023-01-21T11:44:51.880Z,0.61
2023-01-21T11:47:53.853Z,0.63
2023-01-21T11:51:07.985Z,0.54
2023-01-21T11:54:20.634Z,0.45
2023-01-21T11:57:27.488Z,0.50
2023-01-21T12:00:36.247Z,0.58
2023-01-21T12:03:44.625Z,0.55
2023-01-21T12:06:48.073Z,0.39
2023-01-21T12:09:55.077Z,0.30
2023-01-21T12:13:28.925Z,0.30
2023-01-21T12:17:05.397Z,0.24
2023-01-21T12:20:20.894Z,0.33
2023-01-21T12:23:49.764Z,0.31
2023-01-21T12:27:09.688Z,0.34
2023-01-21T12:30:24.700Z,0.36
2023-01-21T12:33:32.204Z,0.32
2023-01-21T12:36:44.362Z,0.28
2023-01-21T12:39:48.843Z,0.34
2023-01-21T12:42:55.920Z,0.44
2023-01-21T12:46:10.390Z,0.45
2023-01-21T12:49:19.206Z,0.50
2023-01-21T12:52:36.924Z,0.69
2023-01-21T12:55:58.470Z,0.47
2023-01-21T12:59:08.715Z,0.48
2023-01-21T13:02:27.406Z,0.48
2023-01-21T13:05:46.177Z,0.35
2023-01-21T13:08:58.321Z,0.23
2023-01-21T13:12:05.399Z,0.28
2023-01-21T13:15:19.316Z,0.31
2023-01-21T13:18:32.395Z,0.34
2023-01-21T13:21:49.025Z,0.26
2023-01-21T13:24:59.715Z,0.22
2023-01-21T13:28:01.268Z,0.22
2023-01-21T13:31:20.129Z,0.19
2023-01-21T13:34:52.956Z,0.10
2023-01-21T13:38:20.579Z,0.09
2023-01-21T13:41:40.091Z,0.09
2023-01-21T13:44:47.934Z,0.11
2023-01-21T13:47:58.605Z,0.19
2023-01-21T13:51:25.671Z,0.35
2023-01-21T13:54:33.039Z,0.32
2023-01-21T13:57:54.678Z,0.30
2023-01-21T14:01:02.373Z,0.32
2023-01-21T14:04:12.449Z,0.34
2023-01-21T14:07:33.328Z,0.29
2023-01-21T14:10:50.606Z,0.28
2023-01-21T14:14:04.270Z,0.28
2023-01-21T14:17:47.603Z,0.29
2023-01-21T14:21:26.877Z,0.33
2023-01-21T14:24:42.878Z,0.31
2023-01-21T14:28:11.649Z,0.36
2023-01-21T14:31:22.535Z,0.25
2023-01-21T14:34:40.421Z,0.27
2023-01-21T14:37:47.193Z,0.24
2023-01-21T14:40:51.082Z,0.23
2023-01-21T14:43:52.912Z,0.26
2023-01-21T14:47:16.309Z,0.34
2023-01-21T14:50:53.459Z,0.29
2023-01-21T14:54:01.881Z,0.23
2023-01-21T14:57:18.314Z,0.35
2023-01-21T15:00:32.218Z,0.27
2023-01-21T15:03:43.307Z,0.32
2023-01-21T15:06:45.012Z,0.25
2023-01-21T15:09:55.841Z,0.24
2023-01-21T15:13:04.533Z,0.22
2023-01-21T15:16:32.777Z,0.34
2023-01-21T15:19:35.789Z,0.34
2023-01-21T15:22:40.828Z,0.28
2023-01-21T15:26:08.275Z,0.28
2023-01-21T15:29:22.851Z,0.19
2023-01-21T15:32:31.748Z,0.11
2023-01-21T15:35:36.081Z,0.14
2023-01-21T15:38:40.568Z,0.17
2023-01-21T15:42:02.993Z,0.16
2023-01-21T15:45:07.214Z,0.15
2023-01-21T15:48:40.710Z,0.12
2023-01-21T15:52:26.065Z,0.06
2023-01-21T15:56:00.753Z,0.07
2023-01-21T15:59:21.232Z,0.04
2023-01-21T16:02:32.308Z,0.07
2023-01-21T16:06:15.821Z,0.06
2023-01-21T16:09:37.985Z,0.08
2023-01-21T16:12:45.665Z,0.15
2023-01-21T16:16:31.657Z,0.10
2023-01-21T16:19:37.893Z,0.14
2023-01-21T16:22:43.429Z,0.12
2023-01-21T16:25:47.716Z,0.11
2023-01-21T16:28:49.648Z,0.12
2023-01-21T16:32:01.665Z,0.13
2023-01-21T16:35:04.622Z,0.13
2023-01-21T16:38:06.019Z,0.05
2023-01-21T16:41:07.353Z,0.08
2023-01-21T16:44:15.861Z,0.08
2023-01-21T16:47:25.623Z,0.09
2023-01-21T16:50:29.346Z,0.05
2023-01-21T16:53:30.747Z,0.04
2023-01-21T16:56:32.166Z,0.06
2023-01-21T16:59:42.251Z,0.06
2023-01-21T17:02:43.754Z,0.06
2023-01-21T17:05:46.171Z,0.06
2023-01-21T17:08:54.044Z,0.09
2023-01-21T17:11:57.960Z,0.11
2023-01-21T17:15:17.026Z,0.06
2023-01-21T17:18:27.355Z,0.11
2023-01-21T17:21:35.359Z,0.08
2023-01-21T17:24:44.107Z,0.11
2023-01-21T17:27:45.797Z,0.16
2023-01-21T17:30:47.254Z,0.25
2023-01-21T17:34:04.670Z,0.31
2023-01-21T17:37:42.663Z,0.35
2023-01-21T17:41:03.600Z,0.39
2023-01-21T17:44:18.262Z,0.35
2023-01-21T17:47:54.271Z,0.36
2023-01-21T17:51:13.679Z,0.46
2023-01-21T17:54:20.710Z,0.48
2023-01-21T17:57:35.633Z,0.47
2023-01-21T18:00:44.766Z,0.59
2023-01-21T18:03:46.233Z,0.64
2023-01-21T18:06:47.773Z,0.64
2023-01-21T18:09:53.807Z,0.60
2023-01-21T18:12:57.763Z,0.51
2023-01-21T18:15:59.221Z,0.58
2023-01-21T18:19:00.742Z,0.61
2023-01-21T18:22:04.037Z,0.62
2023-01-21T18:25:06.520Z,0.52
2023-01-21T18:28:18.467Z,0.41
2023-01-21T18:31:20.130Z,0.41
2023-01-21T18:34:21.638Z,0.31
2023-01-21T18:37:25.108Z,0.36
2023-01-21T18:40:26.703Z,0.40
2023-01-21T18:43:28.101Z,0.47
2023-01-21T18:46:29.612Z,0.37
2023-01-21T18:49:31.037Z,0.43
2023-01-21T18:52:32.557Z,0.29
2023-01-21T18:55:34.534Z,0.31
2023-01-21T18:58:35.942Z,0.28
2023-01-21T19:01:37.439Z,0.33
2023-01-21T19:04:38.926Z,0.30
2023-01-21T19:07:40.622Z,0.31
2023-01-21T19:10:42.242Z,0.30
2023-01-21T19:13:43.746Z,0.34
2023-01-21T19:16:45.711Z,0.45
2023-01-21T19:19:47.096Z,0.41
2023-01-21T19:22:49.474Z,0.40
2023-01-21T19:25:55.613Z,0.40
2023-01-21T19:28:57.046Z,0.38
2023-01-21T19:31:58.457Z,0.39
2023-01-21T19:35:01.747Z,0.35
2023-01-21T19:38:09.556Z,0.26
2023-01-21T19:41:11.083Z,0.25
2023-01-21T19:44:12.439Z,0.28
2023-01-21T19:47:26.528Z,0.29
2023-01-21T19:50:28.035Z,0.29
2023-01-21T19:53:29.439Z,0.28
2023-01-21T19:56:30.881Z,0.34
2023-01-21T19:59:34.665Z,0.29
2023-01-21T20:02:36.079Z,0.29
2023-01-21T20:05:37.600Z,0.18
2023-01-21T20:08:39.085Z,0.22
2023-01-21T20:11:40.789Z,0.22
2023-01-21T20:14:42.213Z,0.26
2023-01-21T20:17:50.495Z,0.21
2023-01-21T20:20:53.162Z,0.22
2023-01-21T20:23:54.584Z,0.21
2023-01-21T20:26:55.971Z,0.18
2023-01-21T20:30:14.837Z,0.14
2023-01-21T20:33:20.790Z,0.13
2023-01-21T20:36:24.746Z,0.15
2023-01-21T20:39:26.365Z,0.14
2023-01-21T20:42:28.105Z,0.16
2023-01-21T20:45:44.435Z,0.16
2023-01-21T20:48:46.065Z,0.19
2023-01-21T20:51:47.492Z,0.21
2023-01-21T20:54:49.592Z,0.21
2023-01-21T20:57:51.030Z,0.16
2023-01-21T21:00:52.477Z,0.22
2023-01-21T21:03:53.992Z,0.28
2023-01-21T21:06:55.562Z,0.26
2023-01-21T21:09:59.878Z,0.28
2023-01-21T21:13:01.653Z,0.28
2023-01-21T21:16:13.410Z,0.23
2023-01-21T21:19:14.819Z,0.18
2023-01-21T21:22:16.289Z,0.17
2023-01-21T21:25:23.186Z,0.17
2023-01-21T21:28:24.592Z,0.14
2023-01-21T21:31:32.485Z,0.14
2023-01-21T21:34:34.273Z,0.13
2023-01-21T21:37:35.664Z,0.08
2023-01-21T21:40:37.049Z,0.09
2023-01-21T21:43:41.411Z,0.14
2023-01-21T21:47:01.967Z,0.21
2023-01-21T21:50:03.662Z,0.12
2023-01-21T21:53:05.111Z,0.21
2023-01-21T21:56:15.268Z,0.18
2023-01-21T21:59:16.671Z,0.20
2023-01-21T22:02:19.207Z,0.25
2023-01-21T22:05:20.770Z,0.23
2023-01-21T22:08:22.385Z,0.21
2023-01-21T22:11:24.462Z,0.28
2023-01-21T22:14:25.873Z,0.31
2023-01-21T22:17:27.580Z,0.31
2023-01-21T22:20:28.991Z,0.24
2023-01-21T22:23:31.847Z,0.18
2023-01-21T22:26:35.587Z,0.22
2023-01-21T22:29:36.952Z,0.16
2023-01-21T22:32:38.337Z,0.12
2023-01-21T22:35:40.355Z,0.08
2023-01-21T22:38:42.503Z,0.11
2023-01-21T22:41:44.097Z,0.08
2023-01-21T22:44:45.551Z,0.07
2023-01-21T22:47:46.921Z,0.08
2023-01-21T22:50:56.141Z,0.07
2023-01-21T22:53:59.945Z,0.10
2023-01-21T22:57:01.347Z,0.05
2023-01-21T23:00:03.872Z,0.08
2023-01-21T23:03:07.196Z,0.07
2023-01-21T23:06:08.619Z,0.07
2023-01-21T23:09:14.889Z,0.07
2023-01-21T23:12:19.166Z,0.06
2023-01-21T23:15:22.071Z,0.06
2023-01-21T23:18:25.683Z,0.12
2023-01-21T23:21:27.081Z,0.06
2023-01-21T23:24:28.495Z,0.02
2023-01-21T23:27:29.879Z,-0.01
2023-01-21T23:30:32.875Z,0.00
2023-01-21T23:33:35.056Z,-0.01
2023-01-21T23:36:36.445Z,0.06
2023-01-21T23:39:38.079Z,0.05
2023-01-21T23:42:39.458Z,0.06
2023-01-21T23:45:40.837Z,0.05
2023-01-21T23:48:42.507Z,0.03
2023-01-21T23:51:44.716Z,0.04
2023-01-21T23:54:46.270Z,0.06
2023-01-21T23:57:47.673Z,0.06
